sensor_id;sensor_type;location;lat;lon;timestamp;pressure;altitude;pressure_sealevel;temperature;humidity
21824;BME280;11074;48.596;9.238;2023-02-20T00:00:25;99367.06;;;10.31;80.23
21824;BME280;11074;48.596;9.238;2023-02-20T00:02:51;99367.44;;;10.34;80.10
21824;BME280;11074;48.596;9.238;2023-02-20T00:05:17;99362.16;;;10.28;80.05
21824;BME280;11074;48.596;9.238;2023-02-20T00:07:43;99358.06;;;10.25;80.12
21824;BME280;11074;48.596;9.238;2023-02-20T00:10:10;99372.28;;;10.19;81.02
21824;BME280;11074;48.596;9.238;2023-02-20T00:12:36;99369.25;;;10.16;80.75
21824;BME280;11074;48.596;9.238;2023-02-20T00:15:02;99366.75;;;10.21;79.80
21824;BME280;11074;48.596;9.238;2023-02-20T00:17:28;99366.06;;;10.25;79.82
21824;BME280;11074;48.596;9.238;2023-02-20T00:19:54;99379.25;;;10.27;79.53
21824;BME280;11074;48.596;9.238;2023-02-20T00:22:22;99372.63;;;10.29;80.00
21824;BME280;11074;48.596;9.238;2023-02-20T00:24:48;99365.63;;;10.28;79.78
21824;BME280;11074;48.596;9.238;2023-02-20T00:27:14;99371.81;;;10.29;78.84
21824;BME280;11074;48.596;9.238;2023-02-20T00:29:39;99360.28;;;10.28;79.77
21824;BME280;11074;48.596;9.238;2023-02-20T00:32:05;99363.78;;;10.29;80.13
21824;BME280;11074;48.596;9.238;2023-02-20T00:34:31;99352.31;;;10.22;80.15
21824;BME280;11074;48.596;9.238;2023-02-20T00:36:57;99361.41;;;10.21;79.39
21824;BME280;11074;48.596;9.238;2023-02-20T00:39:25;99365.09;;;10.20;79.80
21824;BME280;11074;48.596;9.238;2023-02-20T00:41:51;99356.06;;;10.21;80.54
21824;BME280;11074;48.596;9.238;2023-02-20T00:44:17;99353.53;;;10.26;80.29
21824;BME280;11074;48.596;9.238;2023-02-20T00:46:42;99365.69;;;10.22;79.72
21824;BME280;11074;48.596;9.238;2023-02-20T00:49:08;99366.91;;;10.26;79.45
21824;BME280;11074;48.596;9.238;2023-02-20T00:51:34;99367.94;;;10.25;79.45
21824;BME280;11074;48.596;9.238;2023-02-20T00:54:01;99374.69;;;10.27;79.42
21824;BME280;11074;48.596;9.238;2023-02-20T00:56:27;99393.13;;;10.35;79.36
21824;BME280;11074;48.596;9.238;2023-02-20T00:58:52;99388.00;;;10.34;78.69
21824;BME280;11074;48.596;9.238;2023-02-20T01:01:18;99394.75;;;10.37;79.32
21824;BME280;11074;48.596;9.238;2023-02-20T01:03:44;99400.34;;;10.35;79.36
21824;BME280;11074;48.596;9.238;2023-02-20T01:06:10;99400.94;;;10.37;79.73
21824;BME280;11074;48.596;9.238;2023-02-20T01:08:35;99399.28;;;10.36;79.40
21824;BME280;11074;48.596;9.238;2023-02-20T01:11:01;99396.59;;;10.36;79.38
21824;BME280;11074;48.596;9.238;2023-02-20T01:13:27;99390.81;;;10.39;79.46
21824;BME280;11074;48.596;9.238;2023-02-20T01:15:52;99388.38;;;10.38;78.79
21824;BME280;11074;48.596;9.238;2023-02-20T01:18:18;99386.06;;;10.41;79.54
21824;BME280;11074;48.596;9.238;2023-02-20T01:20:44;99384.44;;;10.40;79.02
21824;BME280;11074;48.596;9.238;2023-02-20T01:23:10;99385.88;;;10.43;79.39
21824;BME280;11074;48.596;9.238;2023-02-20T01:25:36;99386.31;;;10.40;79.44
21824;BME280;11074;48.596;9.238;2023-02-20T01:28:02;99382.66;;;10.34;79.79
21824;BME280;11074;48.596;9.238;2023-02-20T01:30:27;99387.19;;;10.33;79.77
21824;BME280;11074;48.596;9.238;2023-02-20T01:32:53;99380.56;;;10.36;79.24
21824;BME280;11074;48.596;9.238;2023-02-20T01:35:19;99372.56;;;10.36;80.09
21824;BME280;11074;48.596;9.238;2023-02-20T01:37:44;99365.41;;;10.30;79.51
21824;BME280;11074;48.596;9.238;2023-02-20T01:40:20;99362.72;;;10.30;79.54
21824;BME280;11074;48.596;9.238;2023-02-20T01:42:46;99357.63;;;10.28;79.31
21824;BME280;11074;48.596;9.238;2023-02-20T01:47:51;99359.16;;;10.18;80.36
21824;BME280;11074;48.596;9.238;2023-02-20T01:50:29;99359.75;;;10.20;80.18
21824;BME280;11074;48.596;9.238;2023-02-20T01:53:02;99348.31;;;10.13;79.40
21824;BME280;11074;48.596;9.238;2023-02-20T01:55:33;99353.66;;;10.13;79.17
21824;BME280;11074;48.596;9.238;2023-02-20T01:58:09;99350.41;;;10.04;79.57
21824;BME280;11074;48.596;9.238;2023-02-20T02:00:37;99349.16;;;10.07;80.11
21824;BME280;11074;48.596;9.238;2023-02-20T02:03:11;99348.56;;;10.05;80.47
21824;BME280;11074;48.596;9.238;2023-02-20T02:05:45;99355.38;;;10.01;80.23
21824;BME280;11074;48.596;9.238;2023-02-20T02:08:15;99344.69;;;10.01;79.87
21824;BME280;11074;48.596;9.238;2023-02-20T02:13:32;99346.22;;;9.90;80.30
21824;BME280;11074;48.596;9.238;2023-02-20T02:16:27;99346.69;;;9.87;80.51
21824;BME280;11074;48.596;9.238;2023-02-20T02:23:01;99329.84;;;9.87;80.07
21824;BME280;11074;48.596;9.238;2023-02-20T02:25:44;99328.72;;;9.94;80.39
21824;BME280;11074;48.596;9.238;2023-02-20T02:28:43;99331.00;;;9.91;80.18
21824;BME280;11074;48.596;9.238;2023-02-20T02:31:52;99323.00;;;9.91;80.37
21824;BME280;11074;48.596;9.238;2023-02-20T02:41:21;99323.44;;;9.88;81.00
21824;BME280;11074;48.596;9.238;2023-02-20T02:43:48;99322.25;;;9.84;79.84
21824;BME280;11074;48.596;9.238;2023-02-20T02:46:46;99317.13;;;9.82;80.09
21824;BME280;11074;48.596;9.238;2023-02-20T02:49:45;99320.72;;;9.69;80.47
21824;BME280;11074;48.596;9.238;2023-02-20T02:52:29;99325.25;;;9.69;81.42
21824;BME280;11074;48.596;9.238;2023-02-20T02:55:26;99324.66;;;9.67;81.01
21824;BME280;11074;48.596;9.238;2023-02-20T02:57:52;99337.78;;;9.68;80.33
21824;BME280;11074;48.596;9.238;2023-02-20T03:00:30;99329.94;;;9.73;80.45
21824;BME280;11074;48.596;9.238;2023-02-20T03:03:20;99333.38;;;9.81;80.46
21824;BME280;11074;48.596;9.238;2023-02-20T03:06:03;99329.44;;;9.83;80.03
21824;BME280;11074;48.596;9.238;2023-02-20T03:08:45;99326.53;;;9.85;80.90
21824;BME280;11074;48.596;9.238;2023-02-20T03:11:19;99332.97;;;9.77;80.14
21824;BME280;11074;48.596;9.238;2023-02-20T03:14:12;99332.38;;;9.75;80.40
21824;BME280;11074;48.596;9.238;2023-02-20T03:17:29;99330.97;;;9.72;80.19
21824;BME280;11074;48.596;9.238;2023-02-20T03:20:09;99329.31;;;9.71;80.66
21824;BME280;11074;48.596;9.238;2023-02-20T03:22:54;99323.97;;;9.71;80.00
21824;BME280;11074;48.596;9.238;2023-02-20T03:25:30;99316.50;;;9.55;80.54
21824;BME280;11074;48.596;9.238;2023-02-20T03:28:17;99324.75;;;9.54;80.67
21824;BME280;11074;48.596;9.238;2023-02-20T03:31:15;99321.69;;;9.50;80.50
21824;BME280;11074;48.596;9.238;2023-02-20T03:33:58;99328.66;;;9.51;80.79
21824;BME280;11074;48.596;9.238;2023-02-20T03:36:53;99322.72;;;9.49;80.90
21824;BME280;11074;48.596;9.238;2023-02-20T03:39:51;99335.66;;;9.52;80.47
21824;BME280;11074;48.596;9.238;2023-02-20T03:42:43;99336.84;;;9.56;80.55
21824;BME280;11074;48.596;9.238;2023-02-20T03:45:31;99325.50;;;9.61;80.10
21824;BME280;11074;48.596;9.238;2023-02-20T03:48:07;99327.19;;;9.55;79.98
21824;BME280;11074;48.596;9.238;2023-02-20T03:50:34;99311.47;;;9.47;79.48
21824;BME280;11074;48.596;9.238;2023-02-20T03:53:19;99316.41;;;9.44;80.15
21824;BME280;11074;48.596;9.238;2023-02-20T03:55:47;99317.69;;;9.35;80.84
21824;BME280;11074;48.596;9.238;2023-02-20T03:58:20;99318.50;;;9.35;80.61
21824;BME280;11074;48.596;9.238;2023-02-20T04:00:52;99330.00;;;9.36;80.86
21824;BME280;11074;48.596;9.238;2023-02-20T04:03:25;99334.94;;;9.32;80.74
21824;BME280;11074;48.596;9.238;2023-02-20T04:05:56;99323.41;;;9.38;80.88
21824;BME280;11074;48.596;9.238;2023-02-20T04:08:37;99331.19;;;9.40;80.27
21824;BME280;11074;48.596;9.238;2023-02-20T04:11:17;99334.22;;;9.50;79.76
21824;BME280;11074;48.596;9.238;2023-02-20T04:13:47;99324.16;;;9.52;78.94
21824;BME280;11074;48.596;9.238;2023-02-20T04:16:14;99322.06;;;9.54;78.96
21824;BME280;11074;48.596;9.238;2023-02-20T04:18:40;99317.75;;;9.53;79.51
21824;BME280;11074;48.596;9.238;2023-02-20T04:21:49;99323.16;;;9.46;79.54
21824;BME280;11074;48.596;9.238;2023-02-20T04:24:32;99317.00;;;9.46;79.91
21824;BME280;11074;48.596;9.238;2023-02-20T04:27:00;99314.75;;;9.43;79.81
21824;BME280;11074;48.596;9.238;2023-02-20T04:29:26;99314.03;;;9.29;79.47
21824;BME280;11074;48.596;9.238;2023-02-20T04:31:52;99312.28;;;9.17;80.78
21824;BME280;11074;48.596;9.238;2023-02-20T04:34:18;99311.25;;;9.18;79.65
21824;BME280;11074;48.596;9.238;2023-02-20T04:36:44;99307.09;;;9.22;79.71
21824;BME280;11074;48.596;9.238;2023-02-20T04:39:09;99308.94;;;9.21;79.94
21824;BME280;11074;48.596;9.238;2023-02-20T04:41:35;99305.50;;;9.21;79.43
21824;BME280;11074;48.596;9.238;2023-02-20T04:44:01;99308.59;;;9.18;78.71
21824;BME280;11074;48.596;9.238;2023-02-20T04:46:45;99306.78;;;9.05;79.18
21824;BME280;11074;48.596;9.238;2023-02-20T04:49:11;99315.84;;;9.04;78.14
21824;BME280;11074;48.596;9.238;2023-02-20T04:51:36;99300.44;;;9.06;77.44
21824;BME280;11074;48.596;9.238;2023-02-20T04:54:02;99300.28;;;8.94;78.14
21824;BME280;11074;48.596;9.238;2023-02-20T04:56:28;99291.75;;;8.79;79.06
21824;BME280;11074;48.596;9.238;2023-02-20T04:58:53;99293.81;;;8.77;78.10
21824;BME280;11074;48.596;9.238;2023-02-20T05:01:19;99290.75;;;8.74;78.00
21824;BME280;11074;48.596;9.238;2023-02-20T05:03:45;99288.50;;;8.71;78.01
21824;BME280;11074;48.596;9.238;2023-02-20T05:06:10;99300.97;;;8.83;77.02
21824;BME280;11074;48.596;9.238;2023-02-20T05:08:36;99291.34;;;8.76;76.73
21824;BME280;11074;48.596;9.238;2023-02-20T05:11:02;99307.22;;;8.64;77.57
21824;BME280;11074;48.596;9.238;2023-02-20T05:13:27;99309.94;;;8.51;77.97
21824;BME280;11074;48.596;9.238;2023-02-20T05:15:53;99314.03;;;8.53;78.03
21824;BME280;11074;48.596;9.238;2023-02-20T05:18:27;99316.28;;;8.57;76.80
21824;BME280;11074;48.596;9.238;2023-02-20T05:20:53;99314.44;;;8.44;77.90
21824;BME280;11074;48.596;9.238;2023-02-20T05:23:37;99325.91;;;8.51;78.17
21824;BME280;11074;48.596;9.238;2023-02-20T05:26:09;99315.44;;;8.49;77.33
21824;BME280;11074;48.596;9.238;2023-02-20T05:28:35;99314.44;;;8.50;77.05
21824;BME280;11074;48.596;9.238;2023-02-20T05:31:01;99313.84;;;8.42;77.36
21824;BME280;11074;48.596;9.238;2023-02-20T05:33:26;99324.31;;;8.43;76.24
21824;BME280;11074;48.596;9.238;2023-02-20T05:35:52;99317.94;;;8.44;77.76
21824;BME280;11074;48.596;9.238;2023-02-20T05:38:18;99316.09;;;8.45;76.05
21824;BME280;11074;48.596;9.238;2023-02-20T05:40:44;99315.72;;;8.35;76.83
21824;BME280;11074;48.596;9.238;2023-02-20T05:43:10;99309.16;;;8.37;77.16
21824;BME280;11074;48.596;9.238;2023-02-20T05:45:35;99316.72;;;8.40;75.66
21824;BME280;11074;48.596;9.238;2023-02-20T05:48:01;99306.88;;;8.41;74.23
21824;BME280;11074;48.596;9.238;2023-02-20T05:50:27;99310.16;;;8.23;75.67
21824;BME280;11074;48.596;9.238;2023-02-20T05:52:52;99308.78;;;8.27;77.38
21824;BME280;11074;48.596;9.238;2023-02-20T05:55:18;99303.81;;;8.31;75.74
21824;BME280;11074;48.596;9.238;2023-02-20T05:57:43;99308.94;;;8.26;76.89
21824;BME280;11074;48.596;9.238;2023-02-20T06:00:10;99306.91;;;8.28;76.67
21824;BME280;11074;48.596;9.238;2023-02-20T06:02:36;99305.66;;;8.17;75.90
21824;BME280;11074;48.596;9.238;2023-02-20T06:05:03;99305.47;;;8.19;75.56
21824;BME280;11074;48.596;9.238;2023-02-20T06:07:30;99307.94;;;8.14;75.10
21824;BME280;11074;48.596;9.238;2023-02-20T06:09:56;99314.72;;;7.97;76.74
21824;BME280;11074;48.596;9.238;2023-02-20T06:12:22;99321.09;;;7.96;75.92
21824;BME280;11074;48.596;9.238;2023-02-20T06:14:47;99319.00;;;8.04;75.20
21824;BME280;11074;48.596;9.238;2023-02-20T06:17:13;99317.59;;;8.08;74.89
21824;BME280;11074;48.596;9.238;2023-02-20T06:19:39;99323.31;;;8.05;75.56
21824;BME280;11074;48.596;9.238;2023-02-20T06:22:04;99322.09;;;8.01;76.81
21824;BME280;11074;48.596;9.238;2023-02-20T06:24:30;99319.22;;;8.03;76.70
21824;BME280;11074;48.596;9.238;2023-02-20T06:26:56;99316.34;;;8.04;75.81
21824;BME280;11074;48.596;9.238;2023-02-20T06:29:22;99320.66;;;8.05;74.70
21824;BME280;11074;48.596;9.238;2023-02-20T06:31:48;99323.94;;;7.94;76.25
21824;BME280;11074;48.596;9.238;2023-02-20T06:34:15;99327.63;;;8.00;75.40
21824;BME280;11074;48.596;9.238;2023-02-20T06:36:42;99330.09;;;7.94;75.82
21824;BME280;11074;48.596;9.238;2023-02-20T06:39:10;99339.72;;;7.89;76.51
21824;BME280;11074;48.596;9.238;2023-02-20T06:41:36;99337.06;;;7.82;76.73
21824;BME280;11074;48.596;9.238;2023-02-20T06:44:02;99332.56;;;7.89;75.06
21824;BME280;11074;48.596;9.238;2023-02-20T06:46:28;99340.34;;;7.91;75.64
21824;BME280;11074;48.596;9.238;2023-02-20T06:48:57;99327.22;;;7.96;75.25
21824;BME280;11074;48.596;9.238;2023-02-20T06:51:32;99330.28;;;7.93;75.60
21824;BME280;11074;48.596;9.238;2023-02-20T06:53:59;99333.59;;;7.95;75.11
21824;BME280;11074;48.596;9.238;2023-02-20T06:56:29;99334.00;;;7.92;74.93
21824;BME280;11074;48.596;9.238;2023-02-20T06:58:56;99338.28;;;7.93;76.34
21824;BME280;11074;48.596;9.238;2023-02-20T07:01:27;99334.41;;;7.96;74.75
21824;BME280;11074;48.596;9.238;2023-02-20T07:03:54;99344.44;;;7.80;76.38
21824;BME280;11074;48.596;9.238;2023-02-20T07:06:22;99348.72;;;7.88;76.23
21824;BME280;11074;48.596;9.238;2023-02-20T07:08:48;99346.06;;;7.88;76.77
21824;BME280;11074;48.596;9.238;2023-02-20T07:11:20;99346.88;;;7.88;77.16
21824;BME280;11074;48.596;9.238;2023-02-20T07:13:46;99355.69;;;7.89;77.75
21824;BME280;11074;48.596;9.238;2023-02-20T07:16:13;99365.50;;;8.02;76.83
21824;BME280;11074;48.596;9.238;2023-02-20T07:18:38;99371.88;;;8.07;76.67
21824;BME280;11074;48.596;9.238;2023-02-20T07:21:04;99369.81;;;8.09;76.87
21824;BME280;11074;48.596;9.238;2023-02-20T07:23:30;99363.88;;;8.14;76.10
21824;BME280;11074;48.596;9.238;2023-02-20T07:25:56;99354.25;;;8.13;76.83
21824;BME280;11074;48.596;9.238;2023-02-20T07:28:21;99355.47;;;8.10;77.60
21824;BME280;11074;48.596;9.238;2023-02-20T07:30:47;99357.72;;;8.07;77.51
21824;BME280;11074;48.596;9.238;2023-02-20T07:33:14;99363.06;;;7.93;78.94
21824;BME280;11074;48.596;9.238;2023-02-20T07:35:40;99364.31;;;7.98;79.38
21824;BME280;11074;48.596;9.238;2023-02-20T07:38:06;99364.91;;;8.06;78.95
21824;BME280;11074;48.596;9.238;2023-02-20T07:40:32;99360.81;;;8.10;79.54
21824;BME280;11074;48.596;9.238;2023-02-20T07:42:57;99349.94;;;8.18;79.25
21824;BME280;11074;48.596;9.238;2023-02-20T07:45:23;99353.00;;;8.28;78.36
21824;BME280;11074;48.596;9.238;2023-02-20T07:47:50;99347.28;;;8.31;78.13
21824;BME280;11074;48.596;9.238;2023-02-20T07:50:16;99360.97;;;8.41;77.62
21824;BME280;11074;48.596;9.238;2023-02-20T07:52:44;99359.56;;;8.45;77.94
21824;BME280;11074;48.596;9.238;2023-02-20T07:55:14;99360.75;;;8.49;77.88
21824;BME280;11074;48.596;9.238;2023-02-20T07:57:40;99349.91;;;8.51;78.52
21824;BME280;11074;48.596;9.238;2023-02-20T08:00:07;99354.81;;;8.54;77.79
21824;BME280;11074;48.596;9.238;2023-02-20T08:02:33;99346.81;;;8.54;77.97
21824;BME280;11074;48.596;9.238;2023-02-20T08:04:59;99339.84;;;8.46;78.48
21824;BME280;11074;48.596;9.238;2023-02-20T08:07:25;99341.31;;;8.42;78.38
21824;BME280;11074;48.596;9.238;2023-02-20T08:09:50;99341.72;;;8.39;79.12
21824;BME280;11074;48.596;9.238;2023-02-20T08:12:16;99333.94;;;8.38;78.98
21824;BME280;11074;48.596;9.238;2023-02-20T08:14:41;99335.16;;;8.42;78.65
21824;BME280;11074;48.596;9.238;2023-02-20T08:17:07;99338.59;;;8.56;78.27
21824;BME280;11074;48.596;9.238;2023-02-20T08:19:33;99331.03;;;8.59;78.09
21824;BME280;11074;48.596;9.238;2023-02-20T08:21:58;99333.63;;;8.66;77.54
21824;BME280;11074;48.596;9.238;2023-02-20T08:24:24;99320.50;;;8.71;77.18
21824;BME280;11074;48.596;9.238;2023-02-20T08:26:50;99305.75;;;8.68;77.26
21824;BME280;11074;48.596;9.238;2023-02-20T08:29:16;99308.56;;;8.80;77.06
21824;BME280;11074;48.596;9.238;2023-02-20T08:31:42;99309.75;;;8.90;75.83
21824;BME280;11074;48.596;9.238;2023-02-20T08:34:07;99310.00;;;8.82;76.53
21824;BME280;11074;48.596;9.238;2023-02-20T08:36:34;99303.78;;;8.95;75.29
21824;BME280;11074;48.596;9.238;2023-02-20T08:39:00;99296.53;;;9.08;75.12
21824;BME280;11074;48.596;9.238;2023-02-20T08:41:28;99291.16;;;9.15;75.16
21824;BME280;11074;48.596;9.238;2023-02-20T08:43:54;99293.75;;;9.22;74.65
21824;BME280;11074;48.596;9.238;2023-02-20T08:46:20;99293.75;;;9.28;73.34
21824;BME280;11074;48.596;9.238;2023-02-20T08:48:46;99291.81;;;9.35;73.72
21824;BME280;11074;48.596;9.238;2023-02-20T08:51:12;99289.16;;;9.35;74.05
21824;BME280;11074;48.596;9.238;2023-02-20T08:53:39;99284.16;;;9.45;73.39
21824;BME280;11074;48.596;9.238;2023-02-20T08:56:06;99270.34;;;9.55;73.09
21824;BME280;11074;48.596;9.238;2023-02-20T08:58:31;99277.25;;;9.62;72.33
21824;BME280;11074;48.596;9.238;2023-02-20T09:00:57;99283.78;;;9.66;71.86
21824;BME280;11074;48.596;9.238;2023-02-20T09:03:23;99277.34;;;9.74;71.31
21824;BME280;11074;48.596;9.238;2023-02-20T09:05:49;99274.34;;;9.89;71.33
21824;BME280;11074;48.596;9.238;2023-02-20T09:08:15;99275.06;;;9.96;71.72
21824;BME280;11074;48.596;9.238;2023-02-20T09:10:41;99260.03;;;10.01;70.88
21824;BME280;11074;48.596;9.238;2023-02-20T09:13:06;99265.09;;;10.09;71.21
21824;BME280;11074;48.596;9.238;2023-02-20T09:15:32;99266.50;;;10.12;70.55
21824;BME280;11074;48.596;9.238;2023-02-20T09:18:04;99262.41;;;10.09;70.38
21824;BME280;11074;48.596;9.238;2023-02-20T09:20:31;99270.00;;;10.12;69.88
21824;BME280;11074;48.596;9.238;2023-02-20T09:22:58;99259.72;;;10.16;69.32
21824;BME280;11074;48.596;9.238;2023-02-20T09:25:25;99256.22;;;10.15;69.67
21824;BME280;11074;48.596;9.238;2023-02-20T09:27:51;99255.97;;;10.17;68.52
21824;BME280;11074;48.596;9.238;2023-02-20T09:30:19;99249.69;;;10.29;68.40
21824;BME280;11074;48.596;9.238;2023-02-20T09:32:49;99247.50;;;10.38;68.74
21824;BME280;11074;48.596;9.238;2023-02-20T09:35:26;99251.53;;;10.47;67.38
21824;BME280;11074;48.596;9.238;2023-02-20T09:37:53;99249.38;;;10.56;67.36
21824;BME280;11074;48.596;9.238;2023-02-20T09:40:28;99242.78;;;10.70;66.64
21824;BME280;11074;48.596;9.238;2023-02-20T09:46:21;99241.13;;;10.87;66.34
21824;BME280;11074;48.596;9.238;2023-02-20T09:51:20;99243.44;;;10.83;66.02
21824;BME280;11074;48.596;9.238;2023-02-20T09:54:03;99243.09;;;10.91;64.59
21824;BME280;11074;48.596;9.238;2023-02-20T09:56:36;99243.53;;;11.07;64.43
21824;BME280;11074;48.596;9.238;2023-02-20T09:59:11;99234.56;;;11.13;64.54
21824;BME280;11074;48.596;9.238;2023-02-20T10:01:50;99231.00;;;11.30;63.94
21824;BME280;11074;48.596;9.238;2023-02-20T10:04:25;99231.13;;;11.47;62.66
21824;BME280;11074;48.596;9.238;2023-02-20T10:06:53;99229.28;;;11.59;62.53
21824;BME280;11074;48.596;9.238;2023-02-20T10:09:24;99217.56;;;11.72;62.79
21824;BME280;11074;48.596;9.238;2023-02-20T10:12:09;99222.56;;;11.80;62.51
21824;BME280;11074;48.596;9.238;2023-02-20T10:18:24;99206.63;;;11.73;62.19
21824;BME280;11074;48.596;9.238;2023-02-20T10:21:32;99204.38;;;11.82;61.97
21824;BME280;11074;48.596;9.238;2023-02-20T10:29:48;99214.72;;;11.67;63.05
21824;BME280;11074;48.596;9.238;2023-02-20T10:32:27;99208.22;;;11.63;63.30
21824;BME280;11074;48.596;9.238;2023-02-20T10:35:16;99200.09;;;11.57;63.10
21824;BME280;11074;48.596;9.238;2023-02-20T10:37:51;99211.81;;;11.56;62.85
21824;BME280;11074;48.596;9.238;2023-02-20T10:43:15;99196.13;;;11.60;63.08
21824;BME280;11074;48.596;9.238;2023-02-20T10:48:38;99202.06;;;11.62;62.71
21824;BME280;11074;48.596;9.238;2023-02-20T10:51:42;99202.66;;;11.76;62.08
21824;BME280;11074;48.596;9.238;2023-02-20T10:54:31;99189.47;;;11.86;61.60
21824;BME280;11074;48.596;9.238;2023-02-20T10:57:29;99189.34;;;11.92;61.11
21824;BME280;11074;48.596;9.238;2023-02-20T11:00:06;99183.25;;;12.08;60.92
21824;BME280;11074;48.596;9.238;2023-02-20T11:02:41;99178.91;;;12.19;60.79
21824;BME280;11074;48.596;9.238;2023-02-20T11:05:16;99174.28;;;12.14;60.61
21824;BME280;11074;48.596;9.238;2023-02-20T11:07:44;99176.28;;;12.07;60.63
21824;BME280;11074;48.596;9.238;2023-02-20T11:10:10;99180.38;;;11.98;60.82
21824;BME280;11074;48.596;9.238;2023-02-20T11:15:15;99164.47;;;12.20;60.03
21824;BME280;11074;48.596;9.238;2023-02-20T11:17:43;99165.28;;;12.21;59.32
21824;BME280;11074;48.596;9.238;2023-02-20T11:22:58;99165.41;;;12.26;59.32
21824;BME280;11074;48.596;9.238;2023-02-20T11:25:30;99160.94;;;12.31;59.48
21824;BME280;11074;48.596;9.238;2023-02-20T11:28:25;99159.94;;;12.49;58.48
21824;BME280;11074;48.596;9.238;2023-02-20T11:31:05;99143.81;;;12.60;58.44
21824;BME280;11074;48.596;9.238;2023-02-20T11:33:43;99154.38;;;12.67;58.61
21824;BME280;11074;48.596;9.238;2023-02-20T11:36:16;99150.28;;;12.64;57.82
21824;BME280;11074;48.596;9.238;2023-02-20T11:38:44;99144.75;;;12.83;58.17
21824;BME280;11074;48.596;9.238;2023-02-20T11:41:25;99150.13;;;12.83;57.66
21824;BME280;11074;48.596;9.238;2023-02-20T11:46:39;99137.47;;;13.11;56.55
21824;BME280;11074;48.596;9.238;2023-02-20T11:49:11;99133.97;;;13.27;56.06
21824;BME280;11074;48.596;9.238;2023-02-20T11:51:47;99131.41;;;13.38;55.93
21824;BME280;11074;48.596;9.238;2023-02-20T11:54:25;99115.50;;;13.53;55.25
21824;BME280;11074;48.596;9.238;2023-02-20T11:57:03;99111.66;;;13.65;54.84
21824;BME280;11074;48.596;9.238;2023-02-20T11:59:44;99120.38;;;13.72;54.61
21824;BME280;11074;48.596;9.238;2023-02-20T12:05:09;99092.53;;;14.05;54.28
21824;BME280;11074;48.596;9.238;2023-02-20T12:10:28;99081.03;;;14.10;53.12
21824;BME280;11074;48.596;9.238;2023-02-20T12:12:57;99082.00;;;14.25;53.05
21824;BME280;11074;48.596;9.238;2023-02-20T12:15:27;99088.22;;;14.26;52.72
21824;BME280;11074;48.596;9.238;2023-02-20T12:20:47;99058.47;;;14.37;52.79
21824;BME280;11074;48.596;9.238;2023-02-20T12:23:32;99052.66;;;14.45;52.12
21824;BME280;11074;48.596;9.238;2023-02-20T12:26:39;99044.94;;;14.54;51.56
21824;BME280;11074;48.596;9.238;2023-02-20T12:29:29;99045.88;;;14.70;51.24
21824;BME280;11074;48.596;9.238;2023-02-20T12:32:21;99048.81;;;15.00;50.45
21824;BME280;11074;48.596;9.238;2023-02-20T12:35:23;99040.44;;;15.01;51.12
21824;BME280;11074;48.596;9.238;2023-02-20T12:46:29;99013.75;;;15.42;49.52
21824;BME280;11074;48.596;9.238;2023-02-20T12:49:21;99007.16;;;15.59;49.01
21824;BME280;11074;48.596;9.238;2023-02-20T12:52:28;99001.81;;;15.74;48.74
21824;BME280;11074;48.596;9.238;2023-02-20T12:55:19;99001.81;;;15.80;48.04
21824;BME280;11074;48.596;9.238;2023-02-20T13:01:02;98980.84;;;16.17;47.83
21824;BME280;11074;48.596;9.238;2023-02-20T13:04:12;98979.50;;;16.29;47.37
21824;BME280;11074;48.596;9.238;2023-02-20T13:06:53;98970.88;;;16.37;47.30
21824;BME280;11074;48.596;9.238;2023-02-20T13:09:52;98981.97;;;16.46;46.67
21824;BME280;11074;48.596;9.238;2023-02-20T13:12:21;98964.13;;;16.50;46.62
21824;BME280;11074;48.596;9.238;2023-02-20T13:20:24;98953.06;;;16.52;46.42
21824;BME280;11074;48.596;9.238;2023-02-20T13:23:25;98943.09;;;16.67;45.58
21824;BME280;11074;48.596;9.238;2023-02-20T13:25:54;98936.59;;;16.78;45.88
21824;BME280;11074;48.596;9.238;2023-02-20T13:28:30;98926.84;;;16.98;45.49
21824;BME280;11074;48.596;9.238;2023-02-20T13:31:12;98916.78;;;17.13;44.75
21824;BME280;11074;48.596;9.238;2023-02-20T13:33:47;98909.13;;;17.35;44.15
21824;BME280;11074;48.596;9.238;2023-02-20T13:36:48;98906.13;;;17.42;44.16
21824;BME280;11074;48.596;9.238;2023-02-20T13:47:29;98871.81;;;17.86;43.20
21824;BME280;11074;48.596;9.238;2023-02-20T13:49:58;98866.84;;;17.98;43.03
21824;BME280;11074;48.596;9.238;2023-02-20T13:52:44;98879.31;;;17.94;43.22
21824;BME280;11074;48.596;9.238;2023-02-20T13:57:49;98885.75;;;18.03;42.79
21824;BME280;11074;48.596;9.238;2023-02-20T14:03:31;98887.56;;;18.42;42.17
21824;BME280;11074;48.596;9.238;2023-02-20T14:06:19;98868.78;;;18.55;41.63
21824;BME280;11074;48.596;9.238;2023-02-20T14:08:48;98863.94;;;18.81;41.14
21824;BME280;11074;48.596;9.238;2023-02-20T14:11:26;98865.56;;;19.01;40.40
21824;BME280;11074;48.596;9.238;2023-02-20T14:13:57;98861.75;;;19.25;40.15
21824;BME280;11074;48.596;9.238;2023-02-20T14:16:39;98860.84;;;19.72;39.11
21824;BME280;11074;48.596;9.238;2023-02-20T14:19:20;98864.81;;;19.99;37.84
21824;BME280;11074;48.596;9.238;2023-02-20T14:21:46;98855.41;;;20.55;37.25
21824;BME280;11074;48.596;9.238;2023-02-20T14:24:28;98854.84;;;20.99;36.13
21824;BME280;11074;48.596;9.238;2023-02-20T14:26:55;98852.94;;;21.13;36.57
21824;BME280;11074;48.596;9.238;2023-02-20T14:29:33;98849.47;;;21.35;35.16
21824;BME280;11074;48.596;9.238;2023-02-20T14:32:01;98844.97;;;21.66;34.85
21824;BME280;11074;48.596;9.238;2023-02-20T14:34:50;98825.34;;;22.14;34.32
21824;BME280;11074;48.596;9.238;2023-02-20T14:37:33;98807.25;;;22.49;33.74
21824;BME280;11074;48.596;9.238;2023-02-20T14:40:22;98827.59;;;22.43;33.41
21824;BME280;11074;48.596;9.238;2023-02-20T14:42:59;98836.38;;;22.40;33.29
21824;BME280;11074;48.596;9.238;2023-02-20T14:45:26;98818.28;;;22.44;32.91
21824;BME280;11074;48.596;9.238;2023-02-20T14:47:55;98799.81;;;22.63;32.55
21824;BME280;11074;48.596;9.238;2023-02-20T14:50:34;98794.16;;;22.59;32.38
21824;BME280;11074;48.596;9.238;2023-02-20T14:53:16;98800.94;;;22.70;32.29
21824;BME280;11074;48.596;9.238;2023-02-20T14:55:43;98797.97;;;22.89;32.81
21824;BME280;11074;48.596;9.238;2023-02-20T14:58:18;98790.75;;;22.84;32.47